sensor_id;sensor_type;location;lat;lon;timestamp;pressure;altitude;pressure_sealevel;temperature;humidity
46366;BME280;72328;49.570;8.722;2024-03-08T00:03:38;99696.91;;;10.25;48.07
46366;BME280;72328;49.570;8.722;2024-03-08T00:07:41;99692.91;;;10.21;48.02
46366;BME280;72328;49.570;8.722;2024-03-08T00:11:42;99691.88;;;10.11;48.11
46366;BME280;72328;49.570;8.722;2024-03-08T00:15:42;99692.78;;;10.10;48.14
46366;BME280;72328;49.570;8.722;2024-03-08T00:19:43;99694.72;;;10.07;48.03
46366;BME280;72328;49.570;8.722;2024-03-08T00:23:44;99694.06;;;10.03;48.23
46366;BME280;72328;49.570;8.722;2024-03-08T00:27:44;99679.75;;;9.99;48.21
46366;BME280;72328;49.570;8.722;2024-03-08T00:31:45;99677.41;;;9.96;48.07
46366;BME280;72328;49.570;8.722;2024-03-08T00:35:46;99674.41;;;9.90;48.32
46366;BME280;72328;49.570;8.722;2024-03-08T00:39:51;99670.38;;;9.86;47.96
46366;BME280;72328;49.570;8.722;2024-03-08T00:43:52;99672.44;;;9.81;48.11
46366;BME280;72328;49.570;8.722;2024-03-08T00:47:53;99656.78;;;9.71;47.99
46366;BME280;72328;49.570;8.722;2024-03-08T00:51:54;99649.03;;;9.59;48.49
46366;BME280;72328;49.570;8.722;2024-03-08T00:55:54;99653.47;;;9.57;48.81
46366;BME280;72328;49.570;8.722;2024-03-08T00:59:56;99653.94;;;9.49;48.71
46366;BME280;72328;49.570;8.722;2024-03-08T01:03:57;99654.53;;;9.40;48.60
46366;BME280;72328;49.570;8.722;2024-03-08T01:07:58;99644.84;;;9.31;48.98
46366;BME280;72328;49.570;8.722;2024-03-08T01:11:59;99640.22;;;9.24;48.88
46366;BME280;72328;49.570;8.722;2024-03-08T01:16:00;99639.38;;;9.23;48.81
46366;BME280;72328;49.570;8.722;2024-03-08T01:20:00;99637.19;;;9.17;48.80
46366;BME280;72328;49.570;8.722;2024-03-08T01:24:01;99625.44;;;9.13;48.59
46366;BME280;72328;49.570;8.722;2024-03-08T01:28:03;99632.31;;;9.13;48.88
46366;BME280;72328;49.570;8.722;2024-03-08T01:32:04;99625.00;;;9.07;49.14
46366;BME280;72328;49.570;8.722;2024-03-08T01:36:06;99631.16;;;9.04;48.78
46366;BME280;72328;49.570;8.722;2024-03-08T01:40:07;99624.28;;;9.05;48.86
46366;BME280;72328;49.570;8.722;2024-03-08T01:44:09;99621.63;;;9.06;48.83
46366;BME280;72328;49.570;8.722;2024-03-08T01:48:09;99609.81;;;9.04;48.57
46366;BME280;72328;49.570;8.722;2024-03-08T01:52:10;99604.59;;;9.05;48.52
46366;BME280;72328;49.570;8.722;2024-03-08T01:56:11;99606.22;;;9.06;48.42
46366;BME280;72328;49.570;8.722;2024-03-08T02:00:14;99598.31;;;9.09;48.39
46366;BME280;72328;49.570;8.722;2024-03-08T02:04:15;99600.50;;;9.15;48.22
46366;BME280;72328;49.570;8.722;2024-03-08T02:08:17;99576.47;;;9.16;48.10
46366;BME280;72328;49.570;8.722;2024-03-08T02:12:18;99578.22;;;9.16;48.42
46366;BME280;72328;49.570;8.722;2024-03-08T02:16:21;99584.28;;;9.15;47.90
46366;BME280;72328;49.570;8.722;2024-03-08T02:20:22;99580.06;;;9.14;48.02
46366;BME280;72328;49.570;8.722;2024-03-08T02:24:23;99591.16;;;9.14;47.99
46366;BME280;72328;49.570;8.722;2024-03-08T02:28:24;99576.56;;;9.15;48.01
46366;BME280;72328;49.570;8.722;2024-03-08T02:32:29;99573.06;;;9.16;47.90
46366;BME280;72328;49.570;8.722;2024-03-08T02:36:31;99561.25;;;9.13;47.85
46366;BME280;72328;49.570;8.722;2024-03-08T02:40:35;99561.25;;;9.13;47.62
46366;BME280;72328;49.570;8.722;2024-03-08T02:44:36;99558.88;;;9.10;47.54
46366;BME280;72328;49.570;8.722;2024-03-08T02:48:37;99565.06;;;9.08;47.58
46366;BME280;72328;49.570;8.722;2024-03-08T02:52:40;99551.38;;;9.07;47.56
46366;BME280;72328;49.570;8.722;2024-03-08T02:56:42;99551.56;;;9.04;47.61
46366;BME280;72328;49.570;8.722;2024-03-08T03:00:42;99546.44;;;9.04;47.68
46366;BME280;72328;49.570;8.722;2024-03-08T03:04:44;99545.81;;;9.01;47.65
46366;BME280;72328;49.570;8.722;2024-03-08T03:08:45;99554.53;;;8.98;47.54
46366;BME280;72328;49.570;8.722;2024-03-08T03:12:46;99528.63;;;8.89;47.33
46366;BME280;72328;49.570;8.722;2024-03-08T03:16:48;99532.03;;;8.89;47.70
46366;BME280;72328;49.570;8.722;2024-03-08T03:20:49;99527.78;;;8.88;47.82
46366;BME280;72328;49.570;8.722;2024-03-08T03:24:49;99522.88;;;8.85;47.74
46366;BME280;72328;49.570;8.722;2024-03-08T03:28:52;99521.22;;;8.84;47.86
46366;BME280;72328;49.570;8.722;2024-03-08T03:32:54;99519.66;;;8.82;47.79
46366;BME280;72328;49.570;8.722;2024-03-08T03:36:57;99513.63;;;8.83;47.80
46366;BME280;72328;49.570;8.722;2024-03-08T03:40:58;99507.84;;;8.79;47.77
46366;BME280;72328;49.570;8.722;2024-03-08T03:45:05;99509.75;;;8.76;47.79
46366;BME280;72328;49.570;8.722;2024-03-08T03:49:06;99501.03;;;8.66;47.44
46366;BME280;72328;49.570;8.722;2024-03-08T03:53:08;99505.50;;;8.62;47.55
46366;BME280;72328;49.570;8.722;2024-03-08T03:57:08;99513.19;;;8.62;47.76
46366;BME280;72328;49.570;8.722;2024-03-08T04:01:09;99512.50;;;8.60;47.82
46366;BME280;72328;49.570;8.722;2024-03-08T04:05:10;99509.22;;;8.58;47.93
46366;BME280;72328;49.570;8.722;2024-03-08T04:09:11;99509.47;;;8.54;47.96
46366;BME280;72328;49.570;8.722;2024-03-08T04:13:12;99507.91;;;8.51;47.96
46366;BME280;72328;49.570;8.722;2024-03-08T04:17:13;99496.22;;;8.47;47.61
46366;BME280;72328;49.570;8.722;2024-03-08T04:21:14;99502.38;;;8.45;47.90
46366;BME280;72328;49.570;8.722;2024-03-08T04:25:15;99491.56;;;8.40;48.06
46366;BME280;72328;49.570;8.722;2024-03-08T04:29:17;99485.78;;;8.36;48.00
46366;BME280;72328;49.570;8.722;2024-03-08T04:33:17;99488.72;;;8.30;48.44
46366;BME280;72328;49.570;8.722;2024-03-08T04:37:18;99488.72;;;8.30;48.18
46366;BME280;72328;49.570;8.722;2024-03-08T04:41:22;99486.06;;;8.32;48.39
46366;BME280;72328;49.570;8.722;2024-03-08T04:45:23;99477.59;;;8.31;48.34
46366;BME280;72328;49.570;8.722;2024-03-08T04:49:26;99470.91;;;8.29;48.45
46366;BME280;72328;49.570;8.722;2024-03-08T04:53:28;99472.09;;;8.23;48.40
46366;BME280;72328;49.570;8.722;2024-03-08T04:57:29;99467.03;;;8.22;48.56
46366;BME280;72328;49.570;8.722;2024-03-08T05:01:30;99460.41;;;8.18;48.31
46366;BME280;72328;49.570;8.722;2024-03-08T05:05:30;99475.56;;;8.22;48.68
46366;BME280;72328;49.570;8.722;2024-03-08T05:09:31;99467.13;;;8.20;48.49
46366;BME280;72328;49.570;8.722;2024-03-08T05:13:32;99463.81;;;8.18;48.52
46366;BME280;72328;49.570;8.722;2024-03-08T05:17:32;99458.06;;;8.15;48.53
46366;BME280;72328;49.570;8.722;2024-03-08T05:21:33;99453.94;;;8.12;48.36
46366;BME280;72328;49.570;8.722;2024-03-08T05:25:34;99456.69;;;8.09;48.68
46366;BME280;72328;49.570;8.722;2024-03-08T05:29:34;99452.94;;;8.01;48.85
46366;BME280;72328;49.570;8.722;2024-03-08T05:33:35;99456.16;;;8.04;48.51
46366;BME280;72328;49.570;8.722;2024-03-08T05:37:36;99447.56;;;8.05;48.80
46366;BME280;72328;49.570;8.722;2024-03-08T05:41:38;99444.16;;;8.05;48.55
46366;BME280;72328;49.570;8.722;2024-03-08T05:45:39;99436.03;;;7.98;48.69
46366;BME280;72328;49.570;8.722;2024-03-08T05:49:40;99443.53;;;8.01;48.81
46366;BME280;72328;49.570;8.722;2024-03-08T05:53:41;99438.03;;;7.93;48.88
46366;BME280;72328;49.570;8.722;2024-03-08T05:57:41;99441.34;;;7.95;48.98
46366;BME280;72328;49.570;8.722;2024-03-08T06:01:42;99445.47;;;7.98;48.89
46366;BME280;72328;49.570;8.722;2024-03-08T06:05:43;99442.06;;;7.97;48.78
46366;BME280;72328;49.570;8.722;2024-03-08T06:09:44;99446.81;;;8.03;48.87
46366;BME280;72328;49.570;8.722;2024-03-08T06:13:48;99441.50;;;8.06;49.00
46366;BME280;72328;49.570;8.722;2024-03-08T06:17:50;99441.31;;;8.09;49.25
46366;BME280;72328;49.570;8.722;2024-03-08T06:21:53;99439.66;;;8.08;49.06
46366;BME280;72328;49.570;8.722;2024-03-08T06:25:53;99445.53;;;8.10;48.87
46366;BME280;72328;49.570;8.722;2024-03-08T06:29:55;99432.81;;;8.09;49.04
46366;BME280;72328;49.570;8.722;2024-03-08T06:33:55;99424.19;;;8.10;49.13
46366;BME280;72328;49.570;8.722;2024-03-08T06:37:56;99431.72;;;8.13;49.23
46366;BME280;72328;49.570;8.722;2024-03-08T06:42:00;99433.06;;;8.18;49.80
46366;BME280;72328;49.570;8.722;2024-03-08T06:46:00;99429.88;;;8.29;49.43
46366;BME280;72328;49.570;8.722;2024-03-08T06:50:01;99422.41;;;8.38;49.92
46366;BME280;72328;49.570;8.722;2024-03-08T06:54:02;99430.97;;;8.51;49.94
46366;BME280;72328;49.570;8.722;2024-03-08T06:58:09;99421.66;;;8.63;50.20
46366;BME280;72328;49.570;8.722;2024-03-08T07:02:11;99429.50;;;8.74;50.29
46366;BME280;72328;49.570;8.722;2024-03-08T07:06:11;99427.66;;;8.88;50.33
46366;BME280;72328;49.570;8.722;2024-03-08T07:10:12;99433.75;;;9.00;50.42
46366;BME280;72328;49.570;8.722;2024-03-08T07:14:23;99420.41;;;9.07;50.67
46366;BME280;72328;49.570;8.722;2024-03-08T07:18:24;99416.75;;;9.24;50.58
46366;BME280;72328;49.570;8.722;2024-03-08T07:22:24;99422.50;;;9.40;50.98
46366;BME280;72328;49.570;8.722;2024-03-08T07:26:28;99413.44;;;9.47;50.57
46366;BME280;72328;49.570;8.722;2024-03-08T07:30:29;99417.22;;;9.66;50.89
46366;BME280;72328;49.570;8.722;2024-03-08T07:34:44;99419.75;;;9.91;51.04
46366;BME280;72328;49.570;8.722;2024-03-08T07:38:45;99405.94;;;10.17;51.37
46366;BME280;72328;49.570;8.722;2024-03-08T07:42:49;99411.50;;;10.58;51.53
46366;BME280;72328;49.570;8.722;2024-03-08T07:46:50;99408.19;;;11.58;53.87
46366;BME280;72328;49.570;8.722;2024-03-08T07:50:51;99400.16;;;13.31;54.53
46366;BME280;72328;49.570;8.722;2024-03-08T07:54:51;99398.28;;;15.26;53.18
46366;BME280;72328;49.570;8.722;2024-03-08T07:58:52;99387.06;;;17.21;52.02
46366;BME280;72328;49.570;8.722;2024-03-08T08:02:53;99386.66;;;19.14;50.60
46366;BME280;72328;49.570;8.722;2024-03-08T08:06:54;99375.59;;;20.81;48.79
46366;BME280;72328;49.570;8.722;2024-03-08T08:10:55;99366.63;;;22.14;46.76
46366;BME280;72328;49.570;8.722;2024-03-08T08:14:56;99361.97;;;23.48;45.84
46366;BME280;72328;49.570;8.722;2024-03-08T08:18:59;99362.78;;;24.88;44.49
46366;BME280;72328;49.570;8.722;2024-03-08T08:23:00;99353.72;;;26.24;43.30
46366;BME280;72328;49.570;8.722;2024-03-08T08:27:02;99355.78;;;27.69;41.47
46366;BME280;72328;49.570;8.722;2024-03-08T08:31:02;99351.81;;;28.78;40.03
46366;BME280;72328;49.570;8.722;2024-03-08T08:35:05;99344.13;;;29.46;39.10
46366;BME280;72328;49.570;8.722;2024-03-08T08:39:06;99347.97;;;29.89;37.71
46366;BME280;72328;49.570;8.722;2024-03-08T08:43:13;99347.09;;;30.56;37.43
46366;BME280;72328;49.570;8.722;2024-03-08T08:47:14;99342.34;;;31.08;37.23
46366;BME280;72328;49.570;8.722;2024-03-08T08:51:19;99346.25;;;31.76;36.94
46366;BME280;72328;49.570;8.722;2024-03-08T08:55:20;99351.38;;;32.04;36.41
46366;BME280;72328;49.570;8.722;2024-03-08T08:59:26;99340.16;;;32.02;36.47
46366;BME280;72328;49.570;8.722;2024-03-08T09:03:27;99332.59;;;31.94;37.48
46366;BME280;72328;49.570;8.722;2024-03-08T09:07:30;99328.75;;;31.80;38.36
46366;BME280;72328;49.570;8.722;2024-03-08T09:11:30;99330.47;;;31.15;38.49
46366;BME280;72328;49.570;8.722;2024-03-08T09:15:31;99314.63;;;30.38;39.38
46366;BME280;72328;49.570;8.722;2024-03-08T09:19:32;99310.09;;;29.54;39.94
46366;BME280;72328;49.570;8.722;2024-03-08T09:23:33;99298.94;;;28.72;41.52
46366;BME280;72328;49.570;8.722;2024-03-08T09:27:34;99305.47;;;28.17;42.55
46366;BME280;72328;49.570;8.722;2024-03-08T09:31:35;99290.53;;;27.27;41.78
46366;BME280;72328;49.570;8.722;2024-03-08T09:35:35;99284.72;;;26.45;44.02
46366;BME280;72328;49.570;8.722;2024-03-08T09:39:36;99282.44;;;25.93;45.61
46366;BME280;72328;49.570;8.722;2024-03-08T09:43:37;99281.03;;;25.40;46.84
46366;BME280;72328;49.570;8.722;2024-03-08T09:47:39;99280.78;;;24.78;47.57
46366;BME280;72328;49.570;8.722;2024-03-08T09:51:41;99266.56;;;24.27;48.04
46366;BME280;72328;49.570;8.722;2024-03-08T09:55:42;99272.50;;;23.76;47.17
46366;BME280;72328;49.570;8.722;2024-03-08T09:59:44;99274.03;;;23.17;47.03
46366;BME280;72328;49.570;8.722;2024-03-08T10:03:47;99265.38;;;22.89;47.08
46366;BME280;72328;49.570;8.722;2024-03-08T10:07:49;99266.28;;;23.43;46.43
46366;BME280;72328;49.570;8.722;2024-03-08T10:11:50;99264.09;;;24.00;45.36
46366;BME280;72328;49.570;8.722;2024-03-08T10:15:50;99249.97;;;23.54;46.01
46366;BME280;72328;49.570;8.722;2024-03-08T10:19:51;99258.31;;;22.89;46.55
46366;BME280;72328;49.570;8.722;2024-03-08T10:23:52;99250.97;;;22.30;46.49
46366;BME280;72328;49.570;8.722;2024-03-08T10:27:53;99257.66;;;21.90;44.78
46366;BME280;72328;49.570;8.722;2024-03-08T10:31:56;99244.53;;;21.55;46.67
46366;BME280;72328;49.570;8.722;2024-03-08T10:35:57;99241.22;;;21.46;46.14
46366;BME280;72328;49.570;8.722;2024-03-08T10:40:03;99233.38;;;21.46;46.77
46366;BME280;72328;49.570;8.722;2024-03-08T10:44:44;99225.94;;;21.85;46.48
46366;BME280;72328;49.570;8.722;2024-03-08T10:48:47;99227.53;;;22.77;44.15
46366;BME280;72328;49.570;8.722;2024-03-08T10:52:50;99225.25;;;24.02;41.28
46366;BME280;72328;49.570;8.722;2024-03-08T10:56:51;99229.31;;;24.04;40.81
46366;BME280;72328;49.570;8.722;2024-03-08T11:00:55;99213.81;;;23.69;40.51
46366;BME280;72328;49.570;8.722;2024-03-08T11:04:57;99212.31;;;23.00;41.62
46366;BME280;72328;49.570;8.722;2024-03-08T11:08:58;99206.25;;;22.65;42.63
46366;BME280;72328;49.570;8.722;2024-03-08T11:12:59;99205.44;;;22.37;42.26
46366;BME280;72328;49.570;8.722;2024-03-08T11:17:00;99193.91;;;21.90;42.49
46366;BME280;72328;49.570;8.722;2024-03-08T11:21:08;99196.16;;;21.72;42.39
46366;BME280;72328;49.570;8.722;2024-03-08T11:25:37;99192.13;;;21.55;42.72
46366;BME280;72328;49.570;8.722;2024-03-08T11:29:41;99177.97;;;21.49;42.84
46366;BME280;72328;49.570;8.722;2024-03-08T11:33:41;99175.16;;;21.51;42.14
46366;BME280;72328;49.570;8.722;2024-03-08T11:37:44;99175.19;;;21.72;41.57
46366;BME280;72328;49.570;8.722;2024-03-08T11:41:45;99162.59;;;22.30;40.10
46366;BME280;72328;49.570;8.722;2024-03-08T11:45:49;99166.59;;;22.47;39.40
46366;BME280;72328;49.570;8.722;2024-03-08T11:49:50;99154.56;;;22.11;38.89
46366;BME280;72328;49.570;8.722;2024-03-08T11:53:51;99143.22;;;21.62;40.10
46366;BME280;72328;49.570;8.722;2024-03-08T11:58:00;99142.97;;;21.57;40.26
46366;BME280;72328;49.570;8.722;2024-03-08T12:02:04;99141.66;;;21.46;40.81
46366;BME280;72328;49.570;8.722;2024-03-08T12:06:06;99124.31;;;21.45;41.08
46366;BME280;72328;49.570;8.722;2024-03-08T12:14:19;99106.66;;;21.33;41.32
46366;BME280;72328;49.570;8.722;2024-03-08T12:18:19;99099.16;;;21.09;40.58
46366;BME280;72328;49.570;8.722;2024-03-08T12:22:25;99084.94;;;20.82;39.93
46366;BME280;72328;49.570;8.722;2024-03-08T12:26:25;99105.25;;;20.51;39.21
46366;BME280;72328;49.570;8.722;2024-03-08T12:30:27;99089.38;;;20.24;39.47
46366;BME280;72328;49.570;8.722;2024-03-08T12:34:33;99080.50;;;19.96;39.22
46366;BME280;72328;49.570;8.722;2024-03-08T12:38:35;99071.09;;;19.72;39.36
46366;BME280;72328;49.570;8.722;2024-03-08T12:42:38;99072.38;;;19.54;39.17
46366;BME280;72328;49.570;8.722;2024-03-08T12:46:39;99068.63;;;19.34;38.84
46366;BME280;72328;49.570;8.722;2024-03-08T12:50:44;99059.75;;;19.12;39.01
46366;BME280;72328;49.570;8.722;2024-03-08T12:54:48;99054.63;;;18.96;39.31
46366;BME280;72328;49.570;8.722;2024-03-08T12:58:49;99036.81;;;18.77;38.94
46366;BME280;72328;49.570;8.722;2024-03-08T13:02:50;99036.56;;;18.64;39.50
46366;BME280;72328;49.570;8.722;2024-03-08T13:06:52;99027.16;;;18.55;39.48
46366;BME280;72328;49.570;8.722;2024-03-08T13:10:52;99019.38;;;18.47;39.47
46366;BME280;72328;49.570;8.722;2024-03-08T13:14:54;99004.56;;;18.40;38.87
46366;BME280;72328;49.570;8.722;2024-03-08T13:18:57;99022.19;;;18.30;38.97
46366;BME280;72328;49.570;8.722;2024-03-08T13:22:57;98996.53;;;18.11;38.15
46366;BME280;72328;49.570;8.722;2024-03-08T13:27:00;98989.25;;;17.90;38.40
46366;BME280;72328;49.570;8.722;2024-03-08T13:31:01;98989.13;;;17.76;39.08
46366;BME280;72328;49.570;8.722;2024-03-08T13:35:02;98986.38;;;17.69;39.15
46366;BME280;72328;49.570;8.722;2024-03-08T13:39:04;98972.72;;;17.67;39.23
46366;BME280;72328;49.570;8.722;2024-03-08T13:43:15;98970.44;;;17.72;39.53
46366;BME280;72328;49.570;8.722;2024-03-08T13:47:16;98966.69;;;17.75;39.52
46366;BME280;72328;49.570;8.722;2024-03-08T13:51:17;98949.09;;;17.77;39.27
46366;BME280;72328;49.570;8.722;2024-03-08T13:55:18;98957.88;;;17.76;39.13
46366;BME280;72328;49.570;8.722;2024-03-08T13:59:19;98937.88;;;17.68;39.23
46366;BME280;72328;49.570;8.722;2024-03-08T14:03:22;98925.22;;;17.57;38.96
46366;BME280;72328;49.570;8.722;2024-03-08T14:07:26;98934.34;;;17.53;39.04
46366;BME280;72328;49.570;8.722;2024-03-08T14:11:28;98928.81;;;17.48;39.23
46366;BME280;72328;49.570;8.722;2024-03-08T14:15:29;98914.53;;;17.44;39.22
46366;BME280;72328;49.570;8.722;2024-03-08T14:19:30;98899.56;;;17.38;39.63
46366;BME280;72328;49.570;8.722;2024-03-08T14:23:43;98904.75;;;17.46;39.58
46366;BME280;72328;49.570;8.722;2024-03-08T14:27:44;98892.53;;;17.55;39.52
46366;BME280;72328;49.570;8.722;2024-03-08T14:31:46;98886.34;;;17.64;39.63
46366;BME280;72328;49.570;8.722;2024-03-08T14:35:49;98889.34;;;17.75;39.80
46366;BME280;72328;49.570;8.722;2024-03-08T14:39:50;98876.66;;;17.80;40.17
46366;BME280;72328;49.570;8.722;2024-03-08T14:43:53;98883.97;;;17.85;40.25
46366;BME280;72328;49.570;8.722;2024-03-08T14:47:53;98872.34;;;17.95;40.80
46366;BME280;72328;49.570;8.722;2024-03-08T14:51:55;98872.56;;;18.16;40.98
46366;BME280;72328;49.570;8.722;2024-03-08T14:55:58;98861.75;;;18.35;40.51
46366;BME280;72328;49.570;8.722;2024-03-08T14:59:59;98849.59;;;18.50;40.55
46366;BME280;72328;49.570;8.722;2024-03-08T15:04:06;98859.63;;;18.76;40.76
46366;BME280;72328;49.570;8.722;2024-03-08T15:08:10;98848.25;;;18.91;41.24
46366;BME280;72328;49.570;8.722;2024-03-08T15:12:11;98845.19;;;19.02;41.06
46366;BME280;72328;49.570;8.722;2024-03-08T15:16:12;98845.09;;;19.33;40.67
46366;BME280;72328;49.570;8.722;2024-03-08T15:20:17;98834.38;;;19.71;40.21
46366;BME280;72328;49.570;8.722;2024-03-08T15:24:24;98824.31;;;19.89;39.26
46366;BME280;72328;49.570;8.722;2024-03-08T15:28:24;98823.22;;;19.84;39.54
46366;BME280;72328;49.570;8.722;2024-03-08T15:32:34;98824.16;;;19.76;39.31
46366;BME280;72328;49.570;8.722;2024-03-08T15:36:35;98813.56;;;19.63;39.52
46366;BME280;72328;49.570;8.722;2024-03-08T15:40:36;98810.16;;;19.48;39.21
46366;BME280;72328;49.570;8.722;2024-03-08T15:44:37;98812.69;;;19.27;38.78
46366;BME280;72328;49.570;8.722;2024-03-08T15:48:39;98812.91;;;19.03;38.79
46366;BME280;72328;49.570;8.722;2024-03-08T15:52:50;98800.28;;;18.78;38.68
46366;BME280;72328;49.570;8.722;2024-03-08T15:56:52;98796.09;;;18.54;38.64
46366;BME280;72328;49.570;8.722;2024-03-08T16:00:53;98791.38;;;18.27;38.28
46366;BME280;72328;49.570;8.722;2024-03-08T16:04:56;98793.19;;;18.04;38.56
46366;BME280;72328;49.570;8.722;2024-03-08T16:08:57;98800.63;;;17.85;38.30
46366;BME280;72328;49.570;8.722;2024-03-08T16:12:59;98791.16;;;17.61;38.05
46366;BME280;72328;49.570;8.722;2024-03-08T16:17:02;98792.69;;;17.40;38.64
46366;BME280;72328;49.570;8.722;2024-03-08T16:21:03;98781.69;;;17.22;38.46
46366;BME280;72328;49.570;8.722;2024-03-08T16:25:05;98780.91;;;17.05;38.34
46366;BME280;72328;49.570;8.722;2024-03-08T16:29:10;98766.34;;;16.88;38.56
46366;BME280;72328;49.570;8.722;2024-03-08T16:33:13;98772.53;;;16.79;38.48
46366;BME280;72328;49.570;8.722;2024-03-08T16:37:15;98766.22;;;16.66;38.62
46366;BME280;72328;49.570;8.722;2024-03-08T16:41:17;98764.47;;;16.50;38.63
46366;BME280;72328;49.570;8.722;2024-03-08T16:45:19;98755.66;;;16.35;38.73
46366;BME280;72328;49.570;8.722;2024-03-08T16:49:19;98752.09;;;16.20;38.78
46366;BME280;72328;49.570;8.722;2024-03-08T16:53:20;98748.03;;;16.10;38.89
46366;BME280;72328;49.570;8.722;2024-03-08T16:57:21;98743.66;;;16.02;38.70
46366;BME280;72328;49.570;8.722;2024-03-08T17:01:21;98748.47;;;15.89;38.78
46366;BME280;72328;49.570;8.722;2024-03-08T17:05:22;98750.56;;;15.78;38.83
46366;BME280;72328;49.570;8.722;2024-03-08T17:09:28;98741.81;;;15.71;38.36
46366;BME280;72328;49.570;8.722;2024-03-08T17:13:28;98737.75;;;15.60;38.74
46366;BME280;72328;49.570;8.722;2024-03-08T17:17:29;98735.59;;;15.56;38.50
46366;BME280;72328;49.570;8.722;2024-03-08T17:21:31;98728.78;;;15.47;38.90
46366;BME280;72328;49.570;8.722;2024-03-08T17:25:33;98743.34;;;15.40;38.58
46366;BME280;72328;49.570;8.722;2024-03-08T17:29:35;98737.28;;;15.31;38.59
46366;BME280;72328;49.570;8.722;2024-03-08T17:33:38;98731.91;;;15.25;38.89
46366;BME280;72328;49.570;8.722;2024-03-08T17:37:42;98729.28;;;15.17;38.59
46366;BME280;72328;49.570;8.722;2024-03-08T17:41:42;98726.06;;;15.15;38.59
46366;BME280;72328;49.570;8.722;2024-03-08T17:45:44;98734.75;;;15.06;38.76
46366;BME280;72328;49.570;8.722;2024-03-08T17:49:45;98734.25;;;15.02;38.83
46366;BME280;72328;49.570;8.722;2024-03-08T17:53:47;98741.84;;;14.96;38.71
46366;BME280;72328;49.570;8.722;2024-03-08T17:57:52;98728.47;;;14.83;38.64
46366;BME280;72328;49.570;8.722;2024-03-08T18:01:53;98725.69;;;14.76;38.60
46366;BME280;72328;49.570;8.722;2024-03-08T18:05:55;98723.38;;;14.65;38.80
46366;BME280;72328;49.570;8.722;2024-03-08T18:09:56;98715.19;;;14.52;38.60
46366;BME280;72328;49.570;8.722;2024-03-08T18:13:57;98717.06;;;14.42;38.92
46366;BME280;72328;49.570;8.722;2024-03-08T18:17:58;98715.41;;;14.33;38.87
46366;BME280;72328;49.570;8.722;2024-03-08T18:21:59;98704.13;;;14.25;38.93
46366;BME280;72328;49.570;8.722;2024-03-08T18:26:02;98708.03;;;14.21;38.90
46366;BME280;72328;49.570;8.722;2024-03-08T18:30:04;98705.69;;;14.18;39.23
46366;BME280;72328;49.570;8.722;2024-03-08T18:34:05;98706.28;;;14.12;39.24
46366;BME280;72328;49.570;8.722;2024-03-08T18:38:06;98698.03;;;14.08;39.33
46366;BME280;72328;49.570;8.722;2024-03-08T18:42:07;98695.06;;;14.03;39.24
46366;BME280;72328;49.570;8.722;2024-03-08T18:46:08;98692.94;;;13.99;39.34
46366;BME280;72328;49.570;8.722;2024-03-08T18:50:09;98685.59;;;13.94;39.56
46366;BME280;72328;49.570;8.722;2024-03-08T18:54:12;98684.28;;;13.90;39.34
46366;BME280;72328;49.570;8.722;2024-03-08T18:58:13;98674.88;;;13.89;39.81
46366;BME280;72328;49.570;8.722;2024-03-08T19:02:19;98680.88;;;13.90;39.66
46366;BME280;72328;49.570;8.722;2024-03-08T19:06:22;98670.69;;;13.88;39.26
46366;BME280;72328;49.570;8.722;2024-03-08T19:10:27;98665.97;;;13.84;39.38
46366;BME280;72328;49.570;8.722;2024-03-08T19:14:30;98680.66;;;13.83;39.39
46366;BME280;72328;49.570;8.722;2024-03-08T19:18:33;98673.22;;;13.80;39.37
46366;BME280;72328;49.570;8.722;2024-03-08T19:22:35;98687.91;;;13.80;39.70
46366;BME280;72328;49.570;8.722;2024-03-08T19:26:36;98678.66;;;13.77;39.83
46366;BME280;72328;49.570;8.722;2024-03-08T19:30:37;98693.91;;;13.80;39.43
46366;BME280;72328;49.570;8.722;2024-03-08T19:34:38;98695.06;;;13.86;39.78
46366;BME280;72328;49.570;8.722;2024-03-08T19:38:39;98703.34;;;13.89;39.41
46366;BME280;72328;49.570;8.722;2024-03-08T19:42:41;98685.84;;;13.83;39.31
46366;BME280;72328;49.570;8.722;2024-03-08T19:46:45;98681.25;;;13.77;39.40
46366;BME280;72328;49.570;8.722;2024-03-08T19:50:46;98681.25;;;13.77;39.51
46366;BME280;72328;49.570;8.722;2024-03-08T19:54:47;98692.72;;;13.75;39.31
46366;BME280;72328;49.570;8.722;2024-03-08T19:58:49;98688.00;;;13.70;39.30
46366;BME280;72328;49.570;8.722;2024-03-08T20:02:49;98687.91;;;13.62;39.54
46366;BME280;72328;49.570;8.722;2024-03-08T20:06:52;98692.44;;;13.60;39.60
46366;BME280;72328;49.570;8.722;2024-03-08T20:10:53;98695.16;;;13.59;39.41
46366;BME280;72328;49.570;8.722;2024-03-08T20:14:56;98693.94;;;13.53;39.71
46366;BME280;72328;49.570;8.722;2024-03-08T20:19:00;98698.59;;;13.50;39.68
46366;BME280;72328;49.570;8.722;2024-03-08T20:23:02;98697.72;;;13.41;39.47
46366;BME280;72328;49.570;8.722;2024-03-08T20:27:04;98679.25;;;13.36;39.55
46366;BME280;72328;49.570;8.722;2024-03-08T20:31:04;98677.75;;;13.34;39.72
46366;BME280;72328;49.570;8.722;2024-03-08T20:35:07;98677.09;;;13.32;39.56
46366;BME280;72328;49.570;8.722;2024-03-08T20:39:10;98661.22;;;13.27;39.64
46366;BME280;72328;49.570;8.722;2024-03-08T20:43:11;98660.69;;;13.23;39.76
46366;BME280;72328;49.570;8.722;2024-03-08T20:47:14;98658.53;;;13.19;40.07
46366;BME280;72328;49.570;8.722;2024-03-08T20:51:17;98654.09;;;13.11;39.90
46366;BME280;72328;49.570;8.722;2024-03-08T20:55:17;98644.50;;;13.04;40.18
46366;BME280;72328;49.570;8.722;2024-03-08T20:59:22;98645.75;;;13.00;39.87
46366;BME280;72328;49.570;8.722;2024-03-08T21:03:23;98648.47;;;12.98;40.05
46366;BME280;72328;49.570;8.722;2024-03-08T21:07:30;98645.88;;;12.98;40.11
46366;BME280;72328;49.570;8.722;2024-03-08T21:11:32;98649.44;;;12.97;40.19
46366;BME280;72328;49.570;8.722;2024-03-08T21:15:33;98661.94;;;12.92;40.03
46366;BME280;72328;49.570;8.722;2024-03-08T21:19:34;98655.16;;;12.91;40.11
46366;BME280;72328;49.570;8.722;2024-03-08T21:23:35;98656.38;;;12.87;40.35
46366;BME280;72328;49.570;8.722;2024-03-08T21:27:38;98654.25;;;12.83;40.51
46366;BME280;72328;49.570;8.722;2024-03-08T21:31:39;98644.69;;;12.83;40.34
46366;BME280;72328;49.570;8.722;2024-03-08T21:35:40;98651.22;;;12.87;40.37